createdAt,value
2022-11-13T00:02:06.863Z,16.63
2022-11-13T00:04:52.230Z,16.50
2022-11-13T00:07:38.181Z,15.63
2022-11-13T00:10:23.586Z,17.30
2022-11-13T00:13:09.360Z,16.38
2022-11-13T00:16:06.996Z,16.83
2022-11-13T00:18:53.672Z,16.40
2022-11-13T00:21:39.134Z,15.98
2022-11-13T00:24:25.366Z,15.82
2022-11-13T00:27:10.820Z,16.33
2022-11-13T00:29:56.754Z,15.40
2022-11-13T00:32:42.196Z,15.48
2022-11-13T00:35:27.707Z,15.27
2022-11-13T00:38:12.974Z,14.40
2022-11-13T00:40:59.681Z,16.00
2022-11-13T00:43:44.952Z,15.45
2022-11-13T00:46:31.303Z,15.32
2022-11-13T00:49:17.665Z,14.83
2022-11-13T00:52:03.645Z,16.15
2022-11-13T00:54:49.086Z,13.73
2022-11-13T00:57:34.640Z,14.95
2022-11-13T01:00:20.235Z,14.25
2022-11-13T01:03:05.987Z,16.13
2022-11-13T01:05:51.547Z,14.70
2022-11-13T01:08:37.785Z,14.27
2022-11-13T01:11:26.652Z,13.55
2022-11-13T01:14:12.822Z,13.02
2022-11-13T01:16:57.963Z,14.15
2022-11-13T01:19:43.615Z,14.52
2022-11-13T01:22:28.902Z,14.60
2022-11-13T01:25:14.543Z,13.30
2022-11-13T01:27:59.852Z,13.05
2022-11-13T01:30:45.273Z,12.65
2022-11-13T01:33:30.688Z,14.00
2022-11-13T01:36:26.466Z,12.88
2022-11-13T01:39:12.825Z,12.95
2022-11-13T01:41:58.674Z,12.88
2022-11-13T01:44:59.602Z,14.38
2022-11-13T01:47:45.405Z,11.95
2022-11-13T01:50:30.689Z,11.93
2022-11-13T01:53:16.998Z,11.40
2022-11-13T01:56:03.549Z,11.63
2022-11-13T01:58:59.112Z,12.40
2022-11-13T02:01:44.689Z,10.63
2022-11-13T02:04:31.774Z,11.50
2022-11-13T02:07:20.526Z,10.80
2022-11-13T02:10:07.256Z,11.73
2022-11-13T02:12:53.139Z,12.05
2022-11-13T02:15:40.633Z,9.77
2022-11-13T02:18:27.818Z,10.85
2022-11-13T02:21:55.429Z,10.57
2022-11-13T02:24:45.473Z,9.77
2022-11-13T02:27:43.274Z,11.50
2022-11-13T02:30:32.666Z,9.53
2022-11-13T02:33:30.140Z,9.85
2022-11-13T02:36:16.814Z,10.68
2022-11-13T02:39:09.507Z,10.75
2022-11-13T02:41:54.819Z,10.30
2022-11-13T02:44:40.853Z,10.65
2022-11-13T02:47:26.198Z,9.85
2022-11-13T02:50:12.425Z,10.45
2022-11-13T02:52:58.036Z,10.25
2022-11-13T02:55:44.350Z,10.52
2022-11-13T02:58:29.977Z,10.52
2022-11-13T03:01:16.239Z,9.55
2022-11-13T03:04:02.021Z,10.43
2022-11-13T03:06:48.083Z,10.38
2022-11-13T03:09:33.866Z,10.23
2022-11-13T03:12:19.740Z,9.90
2022-11-13T03:15:07.503Z,10.18
2022-11-13T03:17:54.131Z,10.27
2022-11-13T03:20:42.463Z,9.95
2022-11-13T03:23:28.992Z,9.88
2022-11-13T03:26:17.340Z,9.07
2022-11-13T03:29:03.898Z,8.18
2022-11-13T03:31:49.177Z,8.98
2022-11-13T03:34:35.678Z,8.80
2022-11-13T03:37:21.167Z,8.23
2022-11-13T03:40:08.266Z,7.78
2022-11-13T03:45:39.861Z,7.50
2022-11-13T03:48:25.309Z,8.43
2022-11-13T03:51:11.830Z,8.40
2022-11-13T03:53:57.091Z,7.95
2022-11-13T03:56:42.983Z,7.78
2022-11-13T03:59:28.164Z,8.13
2022-11-13T04:02:13.970Z,8.40
2022-11-13T04:04:59.170Z,8.10
2022-11-13T04:07:45.548Z,7.75
2022-11-13T04:10:31.178Z,7.63
2022-11-13T04:13:17.106Z,7.82
2022-11-13T04:16:02.552Z,7.53
2022-11-13T04:18:48.967Z,7.43
2022-11-13T04:21:34.251Z,7.97
2022-11-13T04:24:20.099Z,7.40
2022-11-13T04:27:05.381Z,8.30
2022-11-13T04:29:51.639Z,7.47
2022-11-13T04:32:37.268Z,6.50
2022-11-13T04:35:23.399Z,7.15
2022-11-13T04:38:08.631Z,7.53
2022-11-13T04:41:14.451Z,7.82
2022-11-13T04:43:59.987Z,6.93
2022-11-13T04:46:45.774Z,6.95
2022-11-13T04:49:31.301Z,6.45
2022-11-13T04:52:16.759Z,6.72
2022-11-13T04:55:02.389Z,7.03
2022-11-13T04:57:51.407Z,6.22
2022-11-13T05:00:37.120Z,6.72
2022-11-13T05:03:22.791Z,7.20
2022-11-13T05:06:10.283Z,6.43
2022-11-13T05:08:56.168Z,6.82
2022-11-13T05:11:41.531Z,7.45
2022-11-13T05:14:26.929Z,7.13
2022-11-13T05:17:13.647Z,6.63
2022-11-13T05:19:59.908Z,6.97
2022-11-13T05:22:45.634Z,6.95
2022-11-13T05:25:32.650Z,7.13
2022-11-13T05:28:18.205Z,7.68
2022-11-13T05:31:16.419Z,7.75
2022-11-13T05:34:06.096Z,7.75
2022-11-13T05:36:52.085Z,7.88
2022-11-13T05:39:38.016Z,7.97
2022-11-13T05:42:23.882Z,7.32
2022-11-13T05:45:10.178Z,7.95
2022-11-13T05:47:57.263Z,8.20
2022-11-13T05:53:28.857Z,6.85
2022-11-13T05:56:19.026Z,8.87
2022-11-13T05:59:05.531Z,10.27
2022-11-13T06:01:50.958Z,10.48
2022-11-13T06:04:36.493Z,10.25
2022-11-13T06:07:21.848Z,12.23
2022-11-13T06:10:08.264Z,11.32
2022-11-13T06:12:55.130Z,11.35
2022-11-13T06:15:41.070Z,13.63
2022-11-13T06:18:27.085Z,12.30
2022-11-13T06:21:21.727Z,12.65
2022-11-13T06:24:10.000Z,12.85
2022-11-13T06:26:56.013Z,12.50
2022-11-13T06:29:41.563Z,11.82
2022-11-13T06:32:27.457Z,12.30
2022-11-13T06:35:12.546Z,11.98
2022-11-13T06:37:58.221Z,12.35
2022-11-13T06:40:43.560Z,12.82
2022-11-13T06:43:29.588Z,12.18
2022-11-13T06:46:18.483Z,12.00
2022-11-13T06:49:04.473Z,10.57
2022-11-13T06:51:49.961Z,10.57
2022-11-13T06:54:35.385Z,9.95
2022-11-13T06:57:20.613Z,9.48
2022-11-13T07:00:08.216Z,9.38
2022-11-13T07:05:39.571Z,7.65
2022-11-13T07:08:24.914Z,9.40
2022-11-13T07:11:13.606Z,8.75
2022-11-13T07:13:59.124Z,9.07
2022-11-13T07:17:08.123Z,9.52
2022-11-13T07:19:50.926Z,8.52
2022-11-13T07:22:36.918Z,9.00
2022-11-13T07:25:22.347Z,8.85
2022-11-13T07:28:07.976Z,9.50
2022-11-13T07:30:53.296Z,9.70
2022-11-13T07:33:39.543Z,10.30
2022-11-13T07:36:24.991Z,9.80
2022-11-13T07:39:10.728Z,10.27
2022-11-13T07:41:56.042Z,10.23
2022-11-13T07:44:54.056Z,9.70
2022-11-13T07:47:40.741Z,10.82
2022-11-13T07:50:33.344Z,10.95
2022-11-13T07:53:20.806Z,10.80
2022-11-13T07:56:07.358Z,11.15
2022-11-13T07:58:53.105Z,10.65
2022-11-13T08:01:38.640Z,12.07
2022-11-13T08:04:24.152Z,11.65
2022-11-13T08:07:13.151Z,10.13
2022-11-13T08:09:58.689Z,11.38
2022-11-13T08:12:46.491Z,11.03
2022-11-13T08:15:33.626Z,11.80
2022-11-13T08:18:19.507Z,11.38
2022-11-13T08:21:09.304Z,11.23
2022-11-13T08:23:57.589Z,10.90
2022-11-13T08:26:43.149Z,11.05
2022-11-13T08:29:28.562Z,11.30
2022-11-13T08:32:19.388Z,11.48
2022-11-13T08:35:06.118Z,11.70
2022-11-13T08:37:52.031Z,11.73
2022-11-13T08:40:37.679Z,11.55
2022-11-13T08:43:23.480Z,12.87
2022-11-13T08:46:09.139Z,11.05
2022-11-13T08:48:54.697Z,11.85
2022-11-13T08:51:39.962Z,11.77
2022-11-13T08:54:25.288Z,12.15
2022-11-13T08:57:10.957Z,12.50
2022-11-13T08:59:56.585Z,12.02
2022-11-13T09:02:42.626Z,11.73
2022-11-13T09:05:28.258Z,11.52
2022-11-13T09:08:14.094Z,11.15
2022-11-13T09:11:06.150Z,12.45
2022-11-13T09:13:53.455Z,10.70
2022-11-13T09:16:39.505Z,11.43
2022-11-13T09:19:25.655Z,11.75
2022-11-13T09:22:11.492Z,9.77
2022-11-13T09:24:57.224Z,10.17
2022-11-13T09:27:42.479Z,9.93
2022-11-13T09:30:30.015Z,10.25
2022-11-13T09:33:15.429Z,10.50
2022-11-13T09:36:02.020Z,9.60
2022-11-13T09:38:47.519Z,10.23
2022-11-13T09:41:57.803Z,8.82
2022-11-13T09:44:49.006Z,8.98
2022-11-13T09:47:44.039Z,9.80
2022-11-13T09:50:32.382Z,9.23
2022-11-13T09:53:18.409Z,9.30
2022-11-13T09:56:19.747Z,9.63
2022-11-13T09:59:27.036Z,8.45
2022-11-13T10:02:40.275Z,9.23
2022-11-13T10:05:52.795Z,8.82
2022-11-13T10:09:03.884Z,8.70
2022-11-13T10:12:00.823Z,7.78
2022-11-13T10:14:51.281Z,8.18
2022-11-13T10:17:56.947Z,8.98
2022-11-13T10:20:57.801Z,7.78
2022-11-13T10:23:48.208Z,8.82
2022-11-13T10:26:33.713Z,8.70
2022-11-13T10:29:20.785Z,7.50
2022-11-13T10:32:24.821Z,7.57
2022-11-13T10:35:29.553Z,7.35
2022-11-13T10:38:44.370Z,7.72
2022-11-13T10:41:30.501Z,7.15
2022-11-13T10:44:35.298Z,7.78
2022-11-13T10:47:49.174Z,6.95
2022-11-13T10:50:31.497Z,7.60
2022-11-13T10:56:20.474Z,6.32
2022-11-13T10:59:18.735Z,6.72
2022-11-13T11:02:20.673Z,6.78
2022-11-13T11:05:28.022Z,7.10
2022-11-13T11:08:15.567Z,6.77
2022-11-13T11:11:40.404Z,7.05
2022-11-13T11:14:34.238Z,6.50
2022-11-13T11:17:24.013Z,7.20
2022-11-13T11:20:43.118Z,6.68
2022-11-13T11:23:43.089Z,7.50
2022-11-13T11:26:35.747Z,6.88
2022-11-13T11:29:39.240Z,7.53
2022-11-13T11:32:37.538Z,7.35
2022-11-13T11:35:39.337Z,8.25
2022-11-13T11:39:06.259Z,8.00
2022-11-13T11:42:33.592Z,7.43
2022-11-13T11:45:40.523Z,7.57
2022-11-13T11:48:32.398Z,7.28
2022-11-13T11:51:34.848Z,7.30
2022-11-13T11:55:08.278Z,7.95
2022-11-13T11:58:45.340Z,7.35
2022-11-13T12:01:47.642Z,8.13
2022-11-13T12:04:51.421Z,7.13
2022-11-13T12:07:58.523Z,7.03
2022-11-13T12:11:02.143Z,6.90
2022-11-13T12:14:06.132Z,6.80
2022-11-13T12:17:23.184Z,6.53
2022-11-13T12:20:35.492Z,7.22
2022-11-13T12:23:39.252Z,7.38
2022-11-13T12:26:54.433Z,7.32
2022-11-13T12:29:57.879Z,6.70
2022-11-13T12:33:08.763Z,6.90
2022-11-13T12:35:54.480Z,7.40
2022-11-13T12:39:29.043Z,6.93
2022-11-13T12:42:52.962Z,6.65
2022-11-13T12:45:38.954Z,6.75
2022-11-13T12:48:48.076Z,6.88
2022-11-13T12:51:41.676Z,7.15
2022-11-13T12:54:36.464Z,6.72
2022-11-13T12:57:30.491Z,6.50
2022-11-13T13:00:26.529Z,6.80
2022-11-13T13:03:33.938Z,7.10
2022-11-13T13:06:43.294Z,6.03
2022-11-13T13:10:07.154Z,6.80
2022-11-13T13:13:23.980Z,6.53
2022-11-13T13:16:11.040Z,7.20
2022-11-13T13:19:26.863Z,6.05
2022-11-13T13:22:35.680Z,6.35
2022-11-13T13:25:33.648Z,6.50
2022-11-13T13:28:24.591Z,7.07
2022-11-13T13:31:13.108Z,7.40
2022-11-13T13:34:41.078Z,7.40
2022-11-13T13:38:02.501Z,6.80
2022-11-13T13:41:21.111Z,6.30
2022-11-13T13:44:06.566Z,6.97
2022-11-13T13:46:52.438Z,6.78
2022-11-13T13:49:37.785Z,6.57
2022-11-13T13:52:33.846Z,6.93
2022-11-13T13:55:33.779Z,6.05
2022-11-13T13:58:27.637Z,6.60
2022-11-13T14:01:26.954Z,6.13
2022-11-13T14:04:21.934Z,6.95
2022-11-13T14:07:27.412Z,6.95
2022-11-13T14:10:20.446Z,6.40
2022-11-13T14:13:05.968Z,7.20
2022-11-13T14:16:05.579Z,6.53
2022-11-13T14:18:51.360Z,7.13
2022-11-13T14:21:37.311Z,6.95
2022-11-13T14:24:54.929Z,7.72
2022-11-13T14:27:40.628Z,7.07
2022-11-13T14:30:29.199Z,7.22
2022-11-13T14:33:26.788Z,6.85
2022-11-13T14:36:16.467Z,7.10
2022-11-13T14:39:02.198Z,7.22
2022-11-13T14:41:54.583Z,7.07
2022-11-13T14:44:40.361Z,7.72
2022-11-13T14:47:37.089Z,7.13
2022-11-13T14:50:36.093Z,6.63
2022-11-13T14:53:30.990Z,7.43
2022-11-13T14:56:17.694Z,7.53
2022-11-13T14:59:25.320Z,7.43
2022-11-13T15:02:12.371Z,8.45
2022-11-13T15:04:58.089Z,7.65
2022-11-13T15:07:45.911Z,7.72
2022-11-13T15:10:31.905Z,7.88
2022-11-13T15:13:18.557Z,8.57
2022-11-13T15:16:05.185Z,8.18
2022-11-13T15:19:02.113Z,8.60
2022-11-13T15:22:20.294Z,9.30
2022-11-13T15:24:54.155Z,8.05
2022-11-13T15:27:43.155Z,9.05
2022-11-13T15:30:28.971Z,9.45
2022-11-13T15:33:15.658Z,8.57
2022-11-13T15:36:01.976Z,8.40
2022-11-13T15:38:47.596Z,9.10
2022-11-13T15:41:34.980Z,9.05
2022-11-13T15:47:37.478Z,7.80
2022-11-13T15:50:23.135Z,9.77
2022-11-13T15:53:11.972Z,8.98
2022-11-13T15:56:02.816Z,9.68
2022-11-13T15:58:48.649Z,10.40
2022-11-13T16:01:34.005Z,9.95
2022-11-13T16:04:19.993Z,8.95
2022-11-13T16:07:12.083Z,9.68
2022-11-13T16:09:57.940Z,9.77
2022-11-13T16:12:45.706Z,10.45
2022-11-13T16:15:31.325Z,10.50
2022-11-13T16:18:31.281Z,10.77
2022-11-13T16:21:19.494Z,10.07
2022-11-13T16:24:05.434Z,11.55
2022-11-13T16:26:57.603Z,10.52
2022-11-13T16:29:44.310Z,11.50
2022-11-13T16:32:30.222Z,10.85
2022-11-13T16:35:17.357Z,12.50
2022-11-13T16:38:03.663Z,13.82
2022-11-13T16:40:49.308Z,12.90
2022-11-13T16:43:34.811Z,12.23
2022-11-13T16:46:26.249Z,12.40
2022-11-13T16:49:19.122Z,12.82
2022-11-13T16:52:05.206Z,12.45
2022-11-13T16:54:51.581Z,12.70
2022-11-13T16:57:37.919Z,13.15
2022-11-13T17:00:27.572Z,14.00
2022-11-13T17:03:12.963Z,13.52
2022-11-13T17:05:59.533Z,15.67
2022-11-13T17:08:44.786Z,14.10
2022-11-13T17:11:32.523Z,15.75
2022-11-13T17:14:17.963Z,14.70
2022-11-13T17:17:11.980Z,15.95
2022-11-13T17:19:57.661Z,15.88
2022-11-13T17:22:48.207Z,15.40
2022-11-13T17:25:33.792Z,16.42
2022-11-13T17:28:19.056Z,17.63
2022-11-13T17:31:12.537Z,16.45
2022-11-13T17:33:58.659Z,16.20
2022-11-13T17:36:43.974Z,18.60
2022-11-13T17:39:29.439Z,17.90
2022-11-13T17:42:14.835Z,17.60
2022-11-13T17:45:00.421Z,17.75
2022-11-13T17:47:45.764Z,18.88
2022-11-13T17:50:31.794Z,18.30
2022-11-13T17:53:17.109Z,19.23
2022-11-13T17:56:08.248Z,19.25
2022-11-13T17:58:54.752Z,18.95
2022-11-13T18:01:40.548Z,16.93
2022-11-13T18:04:26.444Z,17.35
2022-11-13T18:07:12.569Z,17.23
2022-11-13T18:09:58.277Z,16.30
2022-11-13T18:12:44.035Z,16.23
2022-11-13T18:15:29.760Z,16.48
2022-11-13T18:18:15.795Z,16.48
2022-11-13T18:21:22.836Z,15.73
2022-11-13T18:24:17.541Z,14.25
2022-11-13T18:27:05.888Z,14.50
2022-11-13T18:29:51.621Z,13.95
2022-11-13T18:32:37.614Z,15.25
2022-11-13T18:35:23.909Z,15.80
2022-11-13T18:38:09.178Z,14.57
2022-11-13T18:41:24.556Z,14.52
2022-11-13T18:44:10.899Z,14.68
2022-11-13T18:46:56.750Z,14.20
2022-11-13T18:49:42.029Z,16.05
2022-11-13T18:52:27.703Z,15.93
2022-11-13T18:55:13.076Z,15.50
2022-11-13T18:57:58.848Z,14.40
2022-11-13T19:00:44.462Z,15.30
2022-11-13T19:03:30.703Z,14.63
2022-11-13T19:06:19.204Z,13.55
2022-11-13T19:09:08.547Z,15.07
2022-11-13T19:11:54.382Z,14.27
2022-11-13T19:14:39.920Z,14.43
2022-11-13T19:17:25.727Z,14.23
2022-11-13T19:20:11.724Z,14.25
2022-11-13T19:22:57.425Z,15.27
2022-11-13T19:25:43.088Z,14.50
2022-11-13T19:28:29.726Z,14.32
2022-11-13T19:34:07.076Z,13.27
2022-11-13T19:36:53.072Z,14.32
2022-11-13T19:39:38.357Z,15.20
2022-11-13T19:42:24.397Z,14.07
2022-11-13T19:45:10.918Z,15.05
2022-11-13T19:47:58.043Z,15.93
2022-11-13T19:50:47.180Z,14.30
2022-11-13T19:53:32.997Z,13.80
2022-11-13T19:56:21.567Z,13.18
2022-11-13T19:59:11.156Z,15.40
2022-11-13T20:01:56.395Z,13.77
2022-11-13T20:04:42.315Z,15.73
2022-11-13T20:07:28.430Z,13.73
2022-11-13T20:10:14.120Z,14.02
2022-11-13T20:12:59.910Z,14.63
2022-11-13T20:15:54.797Z,13.93
2022-11-13T20:18:42.113Z,13.88
2022-11-13T20:21:33.199Z,14.57
2022-11-13T20:24:18.474Z,15.15
2022-11-13T20:27:04.619Z,15.55
2022-11-13T20:29:50.225Z,13.98
2022-11-13T20:32:40.227Z,15.25
2022-11-13T20:35:25.580Z,14.60
2022-11-13T20:38:11.416Z,15.00
2022-11-13T20:40:56.632Z,14.52
2022-11-13T20:43:42.679Z,14.30
2022-11-13T20:46:27.932Z,15.07
2022-11-13T20:49:13.716Z,15.50
2022-11-13T20:51:59.234Z,17.67
2022-11-13T20:54:44.842Z,15.63
2022-11-13T20:57:30.159Z,17.75
2022-11-13T21:00:16.206Z,17.58
2022-11-13T21:03:01.857Z,17.33
2022-11-13T21:05:48.041Z,18.42
2022-11-13T21:08:33.598Z,16.40
2022-11-13T21:11:22.030Z,17.45
2022-11-13T21:14:09.595Z,16.10
2022-11-13T21:16:55.727Z,17.15
2022-11-13T21:19:42.260Z,19.15
2022-11-13T21:22:27.855Z,17.55
2022-11-13T21:25:13.335Z,17.40
2022-11-13T21:27:59.247Z,19.13
2022-11-13T21:30:44.573Z,16.42
2022-11-13T21:33:39.013Z,18.00
2022-11-13T21:36:27.874Z,16.42
2022-11-13T21:39:13.642Z,18.80
2022-11-13T21:41:58.976Z,20.80
2022-11-13T21:44:44.600Z,21.20
2022-11-13T21:47:30.029Z,20.67
2022-11-13T21:50:15.620Z,21.42
2022-11-13T21:53:01.107Z,22.20
2022-11-13T21:55:51.289Z,21.90
2022-11-13T21:58:39.851Z,22.73
2022-11-13T22:01:26.747Z,22.88
2022-11-13T22:04:12.506Z,22.92
2022-11-13T22:06:58.562Z,22.38
2022-11-13T22:09:44.542Z,24.77
2022-11-13T22:12:30.243Z,23.17
2022-11-13T22:15:15.425Z,24.23
2022-11-13T22:18:01.789Z,26.17
2022-11-13T22:20:49.199Z,24.50
2022-11-13T22:23:35.468Z,24.85
2022-11-13T22:26:23.178Z,27.23
2022-11-13T22:29:09.290Z,25.95
2022-11-13T22:31:54.526Z,27.37
2022-11-13T22:34:40.473Z,27.00
2022-11-13T22:37:25.900Z,27.90
2022-11-13T22:40:12.797Z,29.30
2022-11-13T22:42:58.132Z,29.02
2022-11-13T22:45:43.766Z,28.92
2022-11-13T22:48:29.377Z,28.60
2022-11-13T22:51:20.087Z,29.67
2022-11-13T22:54:11.447Z,29.25
2022-11-13T22:56:59.235Z,29.23
2022-11-13T22:59:44.846Z,28.70
2022-11-13T23:02:31.240Z,28.67
2022-11-13T23:05:16.699Z,29.83
2022-11-13T23:08:02.594Z,29.38
2022-11-13T23:10:55.002Z,30.40
2022-11-13T23:13:51.386Z,29.08
2022-11-13T23:16:36.916Z,29.77
2022-11-13T23:19:23.318Z,29.40
2022-11-13T23:22:08.506Z,27.60
2022-11-13T23:24:54.706Z,32.15
2022-11-13T23:27:39.881Z,30.27
2022-11-13T23:30:26.065Z,30.40
2022-11-13T23:33:11.408Z,31.15
2022-11-13T23:35:57.441Z,30.00
2022-11-13T23:38:42.725Z,29.65
2022-11-13T23:41:28.327Z,30.90
2022-11-13T23:44:13.481Z,29.35
2022-11-13T23:46:59.360Z,31.35
2022-11-13T23:49:44.639Z,30.90
2022-11-13T23:52:30.109Z,30.40
2022-11-13T23:55:16.269Z,31.70
2022-11-13T23:58:04.591Z,31.65
